Flight Track Log - Related Links

Times and Time Zones

All times are in EDT time to prevent confusion due to time zone crossing. See the ASQ6041 flight status page for this flight to view local times or setup timezone preferences in your user account.

Time Position Orientation Groundspeed Altitude Reporting Facility
EDT Latitude Longitude Course Direction KTS MPH feet Rate Location/Type
Tue 06:58:55 AM 33.5661 -86.7511 46° Northeast 156 180 1,200  Level Atlanta Center
Tue 07:00:07 AM 33.6111 -86.6953 46° Northeast 190 219 3,500 1,864 Climbing Atlanta Center
Tue 07:01:07 AM 33.6603 -86.6369 45° Northeast 209 241 5,300 2,250 Climbing Atlanta Center
Tue 07:02:07 AM 33.7139 -86.5761 43° Northeast 244 281 8,000 2,550 Climbing Atlanta Center
Tue 07:03:07 AM 33.7758 -86.5103 41° Northeast 267 307 10,400 2,500 Climbing Atlanta Center
Tue 07:04:07 AM 33.8333 -86.4444 44° Northeast 280 322 13,000 1,800 Climbing Atlanta Center
Tue 07:05:07 AM 33.8953 -86.3764 42° Northeast 280 322 14,000 950 Climbing Atlanta Center
Tue 07:06:07 AM 33.9636 -86.2956 44° Northeast 307 353 14,900 1,150 Climbing Atlanta Center
Tue 07:07:07 AM 34.0381 -86.2097 44° Northeast 337 388 16,300 1,400 Climbing Atlanta Center
Tue 07:08:07 AM 34.1169 -86.1239 42° Northeast 356 410 17,700 1,250 Climbing Atlanta Center
Tue 07:09:07 AM 34.1914 -86.0403 43° Northeast 363 418 18,800 1,150 Climbing Atlanta Center
Tue 07:10:07 AM 34.2719 -85.9467 44° Northeast 376 433 20,000 1,567 Climbing Atlanta Center
Tue 07:12:07 AM 34.4292 -85.7714 43° Northeast 378 435 23,500 1,833 Climbing Atlanta Center
Tue 07:13:07 AM 34.5033 -85.6847 44° Northeast 378 435 25,500 1,550 Climbing Atlanta Center
Tue 07:14:07 AM 34.5794 -85.5981 43° Northeast 373 429 26,600 850 Climbing Atlanta Center
Tue 07:15:07 AM 34.6558 -85.5083 44° Northeast 373 429 27,200 850 Climbing Atlanta Center
Tue 07:16:07 AM 34.7361 -85.4164 43° Northeast 379 436 28,300 1,150 Climbing Atlanta Center
Tue 07:17:07 AM 34.8164 -85.3242 43° Northeast 384 442 29,500 1,150 Climbing Atlanta Center
Tue 07:18:07 AM 34.8967 -85.2317 43° Northeast 384 442 30,600 1,150 Climbing Atlanta Center
Tue 07:19:07 AM 34.9831 -85.1542 36° Northeast 384 442 31,800 1,100 Climbing Atlanta Center
Tue 07:20:07 AM 35.0750 -85.1250 15° North 377 434 32,800 1,150 Climbing Atlanta Center
Tue 07:21:07 AM 35.1858 -85.0958 12° North 375 432 34,100 1,100 Climbing Atlanta Center
Tue 07:22:07 AM 35.2925 -85.0719 10° North 382 440 35,000 450 Climbing Atlanta Center
Tue 07:23:07 AM 35.4056 -85.0428 12° North 395 455 35,000  Level Atlanta Center
Tue 07:24:07 AM 35.5225 -85.0136 11° North 413 475 35,000  Level Atlanta Center
Tue 07:25:07 AM 35.6375 -84.9842 12° North 413 475 35,000  Level Atlanta Center
Tue 07:26:07 AM 35.7503 -84.9547 12° North 413 475 35,000  Level Atlanta Center
Tue 07:27:07 AM 35.8819 -84.9203 12° North 413 475 35,000  Level Atlanta Center
Tue 07:28:07 AM 35.9989 -84.8933 11° North 418 481 35,000  Level Atlanta Center
Tue 07:29:46 AM 36.1736 -84.8450 13° North 420 483 35,000  Level Indianapolis Center
Tue 07:30:47 AM 36.2897 -84.8142 12° North 426 490 35,000  Level Indianapolis Center
Tue 07:31:49 AM 36.4072 -84.7836 12° North 429 494 35,000  Level Indianapolis Center
Tue 07:32:50 AM 36.5231 -84.7494 13° North 429 494 35,000  Level Indianapolis Center
Tue 07:33:52 AM 36.6619 -84.7089 13° North 426 490 35,000  Level Indianapolis Center
Tue 07:34:53 AM 36.7767 -84.6753 13° North 424 488 35,000  Level Indianapolis Center
Tue 07:35:54 AM 36.8917 -84.6408 13° North 422 486 35,000  Level Indianapolis Center
Tue 07:36:56 AM 37.0064 -84.6064 13° North 423 487 35,000  Level Indianapolis Center
Tue 07:37:57 AM 37.1233 -84.5936 North 430 495 35,000  Level Indianapolis Center
Tue 07:38:59 AM 37.2322 -84.6272 346° North 407 468 35,000  Level Indianapolis Center
Tue 07:40:00 AM 37.3453 -84.6619 346° North 413 475 35,000  Level Indianapolis Center
Tue 07:41:02 AM 37.4578 -84.6978 346° North 414 476 35,000  Level Indianapolis Center
Tue 07:42:04 AM 37.5881 -84.7367 347° North 412 474 35,000  Level Indianapolis Center
Tue 07:43:05 AM 37.6989 -84.7722 346° North 410 472 35,000  Level Indianapolis Center
Tue 07:44:07 AM 37.8106 -84.8069 346° North 412 474 35,000  Level Indianapolis Center
Tue 07:45:08 AM 37.9208 -84.8431 346° North 409 471 35,000  Level Indianapolis Center
Tue 07:46:10 AM 38.0353 -84.8767 347° North 420 483 35,000  Level Indianapolis Center
Tue 07:47:12 AM 38.1528 -84.9133 346° North 433 498 35,000  Level Indianapolis Center
Tue 07:48:13 AM 38.2700 -84.9497 346° North 433 498 35,000  Level Indianapolis Center
Tue 07:49:15 AM 38.4033 -84.9931 346° North 424 488 35,000  Level Indianapolis Center
Tue 07:50:16 AM 38.5214 -85.0294 346° North 434 499 35,000  Level Indianapolis Center
Tue 07:51:18 AM 38.6375 -85.0653 346° North 431 496 35,000  Level Indianapolis Center
Tue 07:52:20 AM 38.7478 -85.1044 345° North 423 487 35,000 -634 Level Indianapolis Center
Tue 07:53:21 AM 38.8619 -85.1392 347° North 419 482 33,700 -1,366 Descending Indianapolis Center
Tue 07:54:23 AM 38.9778 -85.1781 345° North 425 489 32,200 -1,452 Descending Indianapolis Center
Tue 07:55:25 AM 39.0942 -85.2156 346° North 428 493 30,700 -1,597 Descending Indianapolis Center
Tue 07:56:27 AM 39.2319 -85.2608 346° North 433 498 28,900 -1,317 Descending Indianapolis Center
Tue 07:57:28 AM 39.3522 -85.2997 346° North 442 509 28,000 -439 Descending Indianapolis Center
Tue 07:58:30 AM 39.4742 -85.3400 346° North 448 516 28,000  Level Indianapolis Center
Tue 07:59:32 AM 39.5939 -85.3786 346° North 445 512 28,000 -194 Level Indianapolis Center
Tue 08:00:34 AM 39.7156 -85.4194 346° North 435 501 27,600 -585 Descending Indianapolis Center
Tue 08:01:35 AM 39.8350 -85.4336 355° North 437 503 26,800 -780 Descending Indianapolis Center
Tue 08:02:37 AM 39.9531 -85.4194 North 424 488 26,000 -387 Descending Indianapolis Center
Tue 08:03:39 AM 40.0597 -85.4089 North 394 453 26,000  Level Indianapolis Center
Tue 08:04:41 AM 40.1683 -85.4000 North 387 445 26,000 -293 Level Indianapolis Center
Tue 08:05:42 AM 40.2642 -85.4642 333° Northwest 387 445 25,400 -829 Descending Indianapolis Center
Tue 08:06:44 AM 40.3608 -85.5531 325° Northwest 412 474 24,300 -677 Descending Indianapolis Center
Tue 08:07:46 AM 40.4583 -85.6747 317° Northwest 410 472 24,000 -504 Descending Indianapolis Center
Tue 08:08:55 AM 40.5400 -85.8083 309° West 411 473 23,200 -458 Descending Chicago Center
Tue 08:09:57 AM 40.6103 -85.9233 309° West 407 468 23,000 -97 Descending Chicago Center
Tue 08:10:59 AM 40.6808 -86.0397 309° West 406 467 23,000  Level Chicago Center
Tue 08:12:01 AM 40.7506 -86.1572 308° West 406 467 23,000 -387 Level Chicago Center
Tue 08:13:03 AM 40.8219 -86.2747 309° West 409 471 22,200 -919 Descending Chicago Center
Tue 08:14:05 AM 40.8919 -86.3914 308° West 405 466 21,100 -1,016 Descending Chicago Center
Tue 08:15:07 AM 40.9592 -86.5064 308° West 396 456 20,100 -1,065 Descending Chicago Center
Tue 08:16:09 AM 41.0383 -86.6383 309° West 382 440 18,900 -1,016 Descending Chicago Center
Tue 08:17:11 AM 41.1003 -86.7419 308° West 382 440 18,000 -1,113 Descending Chicago Center
Tue 08:18:13 AM 41.1639 -86.8517 308° West 380 437 16,600 -1,500 Descending Chicago Center
Tue 08:19:15 AM 41.2267 -86.9567 309° West 367 422 14,900 -2,081 Descending Chicago Center
Tue 08:20:17 AM 41.2989 -87.0819 308° West 359 413 12,300 -1,887 Descending Chicago Center
Tue 08:21:19 AM 41.3578 -87.1814 308° West 348 400 11,000 -690 Descending Chicago Center
Tue 08:22:10 AM 41.4167 -87.2667 313° West 359 413 11,000 -218 Level Chicago TRACON
Tue 08:23:09 AM 41.5000 -87.3500 323° Northwest 353 406 10,600 -504 Descending Chicago TRACON
Tue 08:24:09 AM 41.5667 -87.4333 317° Northwest 345 397 10,000 -480 Descending Chicago TRACON
Tue 08:24:24 AM 41.5767 -87.4394 335° Northwest 345 397 10,000  Level Chicago Center
Tue 08:25:26 AM 41.6642 -87.5356 321° Northwest 343 395 10,000 -435 Level Chicago Center
Tue 08:26:28 AM 41.7239 -87.6039 320° Northwest 287 330 9,100 -1,163 Descending Chicago Center
Tue 08:27:04 AM 41.7667 -87.6500 321° Northwest 278 320 8,100 -1,250 Descending Chicago TRACON
Tue 08:28:04 AM 41.8333 -87.7000 331° Northwest 282 325 7,100 -550 Descending Chicago TRACON
Tue 08:29:04 AM 41.9000 -87.7000 360° North 290 334 7,000 -100 Descending Chicago TRACON
Tue 08:30:04 AM 41.9833 -87.6833 North 256 295 6,900 -850 Descending Chicago TRACON
Tue 08:31:04 AM 42.0333 -87.6500 26° Northeast 252 290 5,300 -1,381 Descending Chicago TRACON
Tue 08:32:10 AM 42.0833 -87.6833 334° Northwest 177 204 4,000 -1,048 Descending Chicago TRACON
Tue 08:33:10 AM 42.0833 -87.7333 270° West 150 173 3,100 -684 Descending Chicago TRACON
Tue 08:34:04 AM 42.0500 -87.7667 217° Southwest 134 154 2,700 -417 Descending Chicago TRACON
Tue 08:35:05 AM 42.0333 -87.8000 236° Southwest 119 137 2,300 -446 Descending Chicago TRACON
Tue 08:36:05 AM 42.0167 -87.8333 236° Southwest 99 114 1,800 -550 Descending Chicago TRACON
Tue 08:37:05 AM 41.9833 -87.8500 200° South 116 133 1,200 -600 Descending Chicago TRACON
Tue 08:39:00 AM 41.9667 -87.9000 285° West  Level FlightAware Approximate

Login

Don't have an account? Register now (free) for customized features, flight alerts, and more!